Time;durP1;ratioP1;P1;durP2;ratioP2;P2;SDS_P1;SDS_P2;PMS_P1;PMS_P2;Temp;Humidity;BMP_temperature;BMP_pressure;BME280_temperature;BME280_humidity;BME280_pressure;Samples;Min_cycle;Max_cycle;Signal;HPM_P1;HPM_P2
2023/03/02 00:01:12;;;;;;;13.60;10.40;;;2.60;99.90;;;;;;5075367;28;20499;-69
2023/03/02 00:03:42;;;;;;;14.07;10.80;;;2.60;99.90;;;;;;5085059;28;20571;-69
2023/03/02 00:06:10;;;;;;;13.70;10.30;;;2.60;99.90;;;;;;5077645;28;23611;-69
2023/03/02 00:08:39;;;;;;;12.50;10.40;;;2.50;99.90;;;;;;5074647;28;20476;-69
2023/03/02 00:11:07;;;;;;;11.70;9.97;;;2.50;99.90;;;;;;5072474;28;20488;-69
2023/03/02 00:13:37;;;;;;;12.57;9.37;;;2.40;99.90;;;;;;5074353;28;22734;-69
2023/03/02 00:16:06;;;;;;;11.90;9.20;;;2.40;99.90;;;;;;5084422;28;20494;-69
2023/03/02 00:18:34;;;;;;;10.90;8.53;;;2.40;99.90;;;;;;5071131;28;20491;-70
2023/03/02 00:21:03;;;;;;;11.30;8.80;;;2.40;99.90;;;;;;5074762;28;20495;-70
2023/03/02 00:23:31;;;;;;;9.10;7.37;;;2.30;99.90;;;;;;5078188;28;20491;-70
2023/03/02 00:26:00;;;;;;;10.70;8.47;;;2.30;99.90;;;;;;5078690;27;20986;-69
2023/03/02 00:28:28;;;;;;;9.90;7.90;;;2.30;99.90;;;;;;5086570;27;20487;-70
2023/03/02 00:30:56;;;;;;;10.30;7.63;;;2.20;99.90;;;;;;5085001;28;20513;-70
2023/03/02 00:33:24;;;;;;;9.67;7.47;;;2.20;99.90;;;;;;5075172;28;21148;-70
2023/03/02 00:35:52;;;;;;;12.27;9.40;;;2.20;99.90;;;;;;5079708;28;20475;-69
2023/03/02 00:38:21;;;;;;;9.57;7.57;;;2.20;99.90;;;;;;5094716;28;20479;-70
2023/03/02 00:40:49;;;;;;;13.07;8.30;;;2.10;99.90;;;;;;5087997;28;20513;-69
2023/03/02 00:43:17;;;;;;;11.67;8.53;;;2.10;99.90;;;;;;5096830;28;20468;-70
2023/03/02 00:45:45;;;;;;;10.43;8.10;;;2.10;99.90;;;;;;5098883;28;20498;-70
2023/03/02 00:48:13;;;;;;;11.20;8.77;;;2.00;99.90;;;;;;5089059;27;20562;-70
2023/03/02 00:50:41;;;;;;;10.50;8.50;;;2.00;99.90;;;;;;5095653;27;20487;-70
2023/03/02 00:53:10;;;;;;;10.73;8.13;;;2.00;99.90;;;;;;5092749;28;22730;-70
2023/03/02 00:55:40;;;;;;;12.00;8.50;;;2.00;99.90;;;;;;5085816;28;20460;-70
2023/03/02 00:58:07;;;;;;;10.73;8.40;;;2.00;99.90;;;;;;5093894;28;20482;-69
2023/03/02 01:00:37;;;;;;;12.20;8.20;;;2.10;99.90;;;;;;5091123;28;20486;-70
2023/03/02 01:03:05;;;;;;;10.67;8.50;;;2.10;99.90;;;;;;5091335;28;21011;-70
2023/03/02 01:05:36;;;;;;;12.27;9.23;;;2.10;99.90;;;;;;5094018;28;20503;-69
2023/03/02 01:08:05;;;;;;;11.60;7.80;;;2.10;99.90;;;;;;5092663;27;20514;-69
2023/03/02 01:10:33;;;;;;;12.17;8.83;;;2.00;99.90;;;;;;5091773;28;20498;-70
2023/03/02 01:13:03;;;;;;;12.07;8.40;;;2.00;99.90;;;;;;5088226;27;21115;-70
2023/03/02 01:15:31;;;;;;;10.10;8.43;;;2.00;99.90;;;;;;5090115;28;20466;-69
2023/03/02 01:17:59;;;;;;;11.43;8.27;;;2.00;99.90;;;;;;5087165;27;20544;-70
2023/03/02 01:20:28;;;;;;;11.30;8.57;;;2.00;99.90;;;;;;5093566;28;20488;-69
2023/03/02 01:22:56;;;;;;;10.00;7.60;;;2.00;99.90;;;;;;5096838;28;20465;-70
2023/03/02 01:25:24;;;;;;;10.70;8.60;;;2.00;99.90;;;;;;5094394;28;20504;-70
2023/03/02 01:27:52;;;;;;;11.80;8.93;;;2.10;99.90;;;;;;5089921;27;20730;-69
2023/03/02 01:30:21;;;;;;;9.63;8.00;;;2.00;99.90;;;;;;5090656;28;20484;-70
2023/03/02 01:32:49;;;;;;;12.37;8.50;;;2.00;99.90;;;;;;5085694;27;20476;-69
2023/03/02 01:35:20;;;;;;;12.47;9.77;;;2.10;99.90;;;;;;5082984;27;20476;-70
2023/03/02 01:37:48;;;;;;;10.73;7.77;;;2.00;99.90;;;;;;5085455;27;20553;-70
2023/03/02 01:40:16;;;;;;;11.20;8.60;;;2.00;99.90;;;;;;5076594;27;20491;-70
2023/03/02 01:42:52;;;;;;;10.87;7.90;;;2.00;99.90;;;;;;5076138;28;20476;-69
2023/03/02 01:45:45;;;;;;;9.90;8.23;;;2.00;99.90;;;;;;5092261;28;20515;-69
2023/03/02 01:48:18;;;;;;;10.70;7.83;;;1.90;99.90;;;;;;5092888;28;21017;-69
2023/03/02 01:50:46;;;;;;;12.00;8.30;;;2.00;99.90;;;;;;5077037;27;20491;-70
2023/03/02 01:53:15;;;;;;;10.70;8.07;;;1.90;99.90;;;;;;5073995;28;20510;-70
2023/03/02 01:55:45;;;;;;;11.53;8.53;;;1.90;99.90;;;;;;5078063;28;20468;-70
2023/03/02 01:58:16;;;;;;;10.53;7.90;;;1.90;99.90;;;;;;5079827;27;20492;-70
2023/03/02 02:00:46;;;;;;;11.03;8.07;;;1.90;99.90;;;;;;5071410;27;20488;-71
2023/03/02 02:03:19;;;;;;;10.00;8.40;;;1.90;99.90;;;;;;5085662;27;20459;-70
2023/03/02 02:05:59;;;;;;;9.70;7.80;;;1.90;99.90;;;;;;5076155;28;20487;-69
2023/03/02 02:08:28;;;;;;;10.00;7.40;;;1.90;99.90;;;;;;5081083;28;20486;-70
2023/03/02 02:10:56;;;;;;;9.17;7.03;;;1.90;99.90;;;;;;5074984;28;20495;-70
2023/03/02 02:13:24;;;;;;;8.60;6.90;;;1.90;99.90;;;;;;5080039;27;20460;-71
2023/03/02 02:15:53;;;;;;;8.73;6.53;;;1.80;99.90;;;;;;5074630;27;20456;-70
2023/03/02 02:18:21;;;;;;;9.37;7.10;;;1.80;99.90;;;;;;5083627;28;20488;-70
2023/03/02 02:20:52;;;;;;;9.20;7.20;;;1.80;99.90;;;;;;5070168;28;21297;-70
2023/03/02 02:23:29;;;;;;;8.23;6.40;;;1.80;99.90;;;;;;5082343;27;20464;-70
2023/03/02 02:26:17;;;;;;;10.17;7.13;;;1.80;99.90;;;;;;5076617;27;20510;-71
2023/03/02 02:28:50;;;;;;;7.37;6.27;;;1.70;99.90;;;;;;5074061;28;20554;-70
2023/03/02 02:31:22;;;;;;;8.43;6.80;;;1.70;99.90;;;;;;5074563;27;20513;-69
2023/03/02 02:33:55;;;;;;;8.53;6.57;;;1.60;99.90;;;;;;5084916;27;20478;-70
2023/03/02 02:36:31;;;;;;;9.67;6.80;;;1.70;99.90;;;;;;5073059;28;20476;-69
2023/03/02 02:39:03;;;;;;;9.10;6.40;;;1.60;99.90;;;;;;5085747;28;20813;-70
2023/03/02 02:41:36;;;;;;;9.80;6.97;;;1.60;99.90;;;;;;5077395;28;20499;-70
2023/03/02 02:44:09;;;;;;;8.53;7.17;;;1.60;99.90;;;;;;5077370;28;20468;-71
2023/03/02 02:46:37;;;;;;;9.40;7.13;;;1.60;99.90;;;;;;5079408;27;20460;-70
2023/03/02 02:49:10;;;;;;;10.60;7.17;;;1.60;99.90;;;;;;5097041;27;20456;-69
2023/03/02 02:51:38;;;;;;;9.37;6.90;;;1.60;99.90;;;;;;5073682;28;21033;-70
2023/03/02 02:54:06;;;;;;;9.60;7.27;;;1.60;99.90;;;;;;5080353;27;20823;-69
2023/03/02 02:56:38;;;;;;;9.80;7.37;;;1.60;99.90;;;;;;5078770;28;20514;-71
2023/03/02 02:59:12;;;;;;;10.40;7.90;;;1.60;99.90;;;;;;5069843;27;20478;-70
2023/03/02 03:01:40;;;;;;;11.00;8.10;;;1.60;99.90;;;;;;5071703;27;20487;-70
2023/03/02 03:04:14;;;;;;;10.60;8.13;;;1.60;99.90;;;;;;5072952;28;20537;-69
2023/03/02 03:06:51;;;;;;;10.13;7.57;;;1.60;99.90;;;;;;5070704;28;20494;-69
2023/03/02 03:09:19;;;;;;;11.13;8.13;;;1.60;99.90;;;;;;5083119;28;20475;-69
2023/03/02 03:11:52;;;;;;;10.30;7.40;;;1.50;99.90;;;;;;5084229;28;20702;-69
2023/03/02 03:14:24;;;;;;;11.10;8.10;;;1.60;99.90;;;;;;5083913;27;20463;-71
2023/03/02 03:16:53;;;;;;;11.37;7.67;;;1.50;99.90;;;;;;5072407;28;20498;-71
2023/03/02 03:19:23;;;;;;;11.20;7.33;;;1.50;99.90;;;;;;5069384;27;20787;-70
2023/03/02 03:21:53;;;;;;;11.13;8.03;;;1.50;99.90;;;;;;5080920;28;20502;-69
2023/03/02 03:24:22;;;;;;;10.00;8.20;;;1.50;99.90;;;;;;5072078;28;20678;-70
2023/03/02 03:26:53;;;;;;;10.83;7.70;;;1.50;99.90;;;;;;5074989;28;20514;-70
2023/03/02 03:29:23;;;;;;;12.27;7.97;;;1.50;99.90;;;;;;5064507;28;21223;-69
2023/03/02 03:31:52;;;;;;;10.67;7.87;;;1.40;99.90;;;;;;5066377;28;20751;-71
2023/03/02 03:34:20;;;;;;;10.40;8.17;;;1.40;99.90;;;;;;5071908;28;20483;-70
2023/03/02 03:36:48;;;;;;;12.63;8.63;;;1.50;99.90;;;;;;5083084;28;20484;-70
2023/03/02 03:39:18;;;;;;;11.27;8.67;;;1.50;99.90;;;;;;5082075;28;20471;-70
2023/03/02 03:41:46;;;;;;;10.53;8.27;;;1.50;99.90;;;;;;5076810;28;20483;-70
2023/03/02 03:44:15;;;;;;;12.70;8.60;;;1.50;99.90;;;;;;5073866;27;20476;-69
2023/03/02 03:46:43;;;;;;;11.53;8.03;;;1.50;99.90;;;;;;5076111;27;20988;-69
2023/03/02 03:49:11;;;;;;;11.40;8.73;;;1.50;99.90;;;;;;5080454;28;21861;-69
2023/03/02 03:51:39;;;;;;;10.73;8.37;;;1.50;99.90;;;;;;5091118;28;20932;-69
2023/03/02 03:54:08;;;;;;;12.50;9.27;;;1.50;99.90;;;;;;5075112;28;20474;-69
2023/03/02 03:56:39;;;;;;;11.83;8.20;;;1.50;99.90;;;;;;5071530;28;20479;-71
2023/03/02 03:59:09;;;;;;;12.47;8.63;;;1.50;99.90;;;;;;5077957;28;20532;-69
2023/03/02 04:01:41;;;;;;;10.70;7.90;;;1.40;99.90;;;;;;5065783;28;20483;-70
2023/03/02 04:04:14;;;;;;;13.60;8.43;;;1.50;99.90;;;;;;5074924;28;20459;-69
2023/03/02 04:06:42;;;;;;;9.60;6.73;;;1.50;99.90;;;;;;5077480;28;20633;-70
2023/03/02 04:09:11;;;;;;;13.50;7.43;;;1.40;99.90;;;;;;5079498;28;20480;-69
2023/03/02 04:11:41;;;;;;;10.20;7.53;;;1.40;99.90;;;;;;5071573;28;20492;-69
2023/03/02 04:14:10;;;;;;;11.20;7.90;;;1.40;99.90;;;;;;5070628;28;20975;-69
2023/03/02 04:16:40;;;;;;;15.07;8.40;;;1.40;99.90;;;;;;5071793;28;20479;-69
2023/03/02 04:19:09;;;;;;;9.43;7.33;;;1.40;99.90;;;;;;5074452;28;20790;-70
2023/03/02 04:21:38;;;;;;;10.50;8.07;;;1.40;99.90;;;;;;5072763;28;20502;-70
2023/03/02 04:24:07;;;;;;;11.43;7.50;;;1.40;99.90;;;;;;5068764;28;20474;-70
2023/03/02 04:26:36;;;;;;;11.87;8.70;;;1.40;99.90;;;;;;5082658;28;20484;-69
2023/03/02 04:29:05;;;;;;;12.10;8.50;;;1.40;99.90;;;;;;5075911;28;20476;-69
2023/03/02 04:31:34;;;;;;;13.90;9.37;;;1.40;99.90;;;;;;5068277;28;21781;-70
2023/03/02 04:34:05;;;;;;;12.70;8.00;;;1.40;99.90;;;;;;5073411;28;20488;-69
2023/03/02 04:36:34;;;;;;;10.60;8.20;;;1.30;99.90;;;;;;5081722;28;20460;-69
2023/03/02 04:39:03;;;;;;;12.90;8.80;;;1.30;99.90;;;;;;5077811;28;20479;-70
2023/03/02 04:41:32;;;;;;;11.80;8.57;;;1.30;99.90;;;;;;5078464;28;20491;-70
2023/03/02 04:44:00;;;;;;;11.50;7.67;;;1.40;99.90;;;;;;5079837;28;20508;-70
2023/03/02 04:46:28;;;;;;;10.90;8.20;;;1.40;99.90;;;;;;5091367;28;21271;-70
2023/03/02 04:48:56;;;;;;;12.87;8.20;;;1.40;99.90;;;;;;5091958;28;20629;-71
2023/03/02 04:51:28;;;;;;;12.73;8.83;;;1.40;99.90;;;;;;5079803;28;20522;-69
2023/03/02 04:53:58;;;;;;;12.90;9.50;;;1.30;99.90;;;;;;5093944;28;20465;-69
2023/03/02 04:56:26;;;;;;;12.77;8.70;;;1.40;99.90;;;;;;5092063;28;20833;-69
2023/03/02 07:00:16;;;;;;;15.60;10.47;;;1.10;99.90;;;;;;5096560;28;20456;-70
2023/03/02 07:02:44;;;;;;;13.50;9.93;;;1.10;99.90;;;;;;5099471;28;20475;-69
2023/03/02 07:05:13;;;;;;;16.53;10.90;;;1.20;99.90;;;;;;5100215;28;20475;-70
2023/03/02 07:07:41;;;;;;;16.80;10.27;;;1.20;99.90;;;;;;5095623;28;20572;-69
2023/03/02 07:10:11;;;;;;;14.60;10.10;;;1.20;99.90;;;;;;5101268;28;20487;-70
2023/03/02 07:12:39;;;;;;;15.00;10.27;;;1.20;99.90;;;;;;5096575;28;20479;-69
2023/03/02 07:15:09;;;;;;;15.07;10.53;;;1.30;99.90;;;;;;5096908;28;20468;-70
2023/03/02 07:17:40;;;;;;;16.43;11.13;;;1.30;99.90;;;;;;5078254;28;20483;-70
2023/03/02 07:20:10;;;;;;;16.33;9.90;;;1.30;99.90;;;;;;5083639;28;20487;-70
2023/03/02 07:22:38;;;;;;;17.73;10.77;;;1.30;99.90;;;;;;5075679;27;22114;-69
2023/03/02 07:25:07;;;;;;;17.57;11.10;;;1.40;99.90;;;;;;5076670;27;20479;-69
2023/03/02 07:27:35;;;;;;;15.53;10.87;;;1.30;99.90;;;;;;5086713;28;20487;-69
2023/03/02 07:30:04;;;;;;;15.87;9.67;;;1.30;99.90;;;;;;5081887;27;20495;-70
2023/03/02 07:32:32;;;;;;;14.47;9.40;;;1.30;99.90;;;;;;5076779;28;20558;-70
2023/03/02 07:35:02;;;;;;;16.80;12.27;;;1.30;99.90;;;;;;5076459;28;22824;-69
2023/03/02 07:37:30;;;;;;;17.10;11.00;;;1.40;99.90;;;;;;5091997;28;20476;-70
2023/03/02 07:39:58;;;;;;;15.47;10.67;;;1.40;99.90;;;;;;5087228;28;20464;-69
2023/03/02 07:42:27;;;;;;;14.57;10.10;;;1.40;99.90;;;;;;5075835;28;20494;-70
2023/03/02 07:44:55;;;;;;;16.00;10.77;;;1.40;99.90;;;;;;5081139;28;20464;-69
2023/03/02 07:47:23;;;;;;;17.30;10.33;;;1.40;99.90;;;;;;5080703;28;20536;-70
2023/03/02 07:49:51;;;;;;;16.90;10.77;;;1.40;99.90;;;;;;5078390;28;20481;-70
2023/03/02 07:52:21;;;;;;;14.80;10.40;;;1.50;99.90;;;;;;5075805;28;20471;-69
2023/03/02 07:54:49;;;;;;;15.63;11.30;;;1.50;99.90;;;;;;5095384;28;20475;-70
2023/03/02 07:57:17;;;;;;;14.80;10.63;;;1.40;99.90;;;;;;5086444;28;20596;-68
2023/03/02 07:59:45;;;;;;;14.17;10.10;;;1.40;99.90;;;;;;5073604;28;20999;-70
2023/03/02 08:02:15;;;;;;;16.17;10.40;;;1.40;99.90;;;;;;5086988;28;20506;-70
2023/03/02 08:04:43;;;;;;;16.27;9.97;;;1.50;99.90;;;;;;5089548;28;20472;-68
2023/03/02 08:07:11;;;;;;;15.97;11.30;;;1.50;99.90;;;;;;5078068;28;20492;-69
2023/03/02 08:09:40;;;;;;;16.40;9.80;;;1.50;99.90;;;;;;5094354;28;21257;-69
2023/03/02 08:12:09;;;;;;;14.40;9.73;;;1.50;99.90;;;;;;5079059;28;20471;-70
2023/03/02 08:14:40;;;;;;;14.00;9.47;;;1.50;99.90;;;;;;5086057;28;20468;-71
2023/03/02 08:17:08;;;;;;;12.03;8.50;;;1.50;99.90;;;;;;5077717;28;20560;-68
2023/03/02 08:19:36;;;;;;;16.50;11.17;;;1.50;99.90;;;;;;5097552;28;20467;-69
2023/03/02 08:22:04;;;;;;;14.27;9.43;;;1.60;99.90;;;;;;5096551;28;20495;-69
2023/03/02 08:24:32;;;;;;;12.53;9.00;;;1.60;99.90;;;;;;5094126;28;21056;-69
2023/03/02 08:27:01;;;;;;;16.50;10.10;;;1.60;99.90;;;;;;5090004;28;21172;-69
2023/03/02 08:29:30;;;;;;;12.70;9.00;;;1.60;99.90;;;;;;5085534;28;20501;-69
2023/03/02 08:31:58;;;;;;;13.27;10.30;;;1.50;99.90;;;;;;5080022;28;20484;-70
2023/03/02 08:34:26;;;;;;;13.50;9.70;;;1.50;99.90;;;;;;5068916;28;20554;-70
2023/03/02 08:36:54;;;;;;;14.47;10.20;;;1.60;99.90;;;;;;5075329;28;20472;-68
2023/03/02 08:39:22;;;;;;;14.93;10.33;;;1.60;99.90;;;;;;5089615;28;20471;-68
2023/03/02 08:41:51;;;;;;;14.93;10.00;;;1.60;99.90;;;;;;5081948;28;21016;-71
2023/03/02 08:44:21;;;;;;;15.80;10.13;;;1.60;99.90;;;;;;5083945;28;20468;-69
2023/03/02 08:46:49;;;;;;;14.60;10.40;;;1.60;99.90;;;;;;5099930;28;20521;-69
2023/03/02 08:49:18;;;;;;;14.30;10.70;;;1.70;99.90;;;;;;5101187;28;21048;-70
2023/03/02 08:51:47;;;;;;;17.10;11.30;;;1.70;99.90;;;;;;5083111;28;23622;-68
2023/03/02 08:54:16;;;;;;;16.80;10.13;;;1.80;99.90;;;;;;5084833;27;22245;-70
2023/03/02 08:56:44;;;;;;;13.10;10.10;;;1.80;99.90;;;;;;5085761;28;20492;-69
2023/03/02 08:59:13;;;;;;;18.13;11.23;;;1.80;99.90;;;;;;5085285;28;20470;-69
2023/03/02 09:01:43;;;;;;;15.60;10.57;;;1.90;99.90;;;;;;5090791;27;21159;-70
2023/03/02 09:04:11;;;;;;;13.70;10.10;;;1.90;99.90;;;;;;5083417;28;20463;-69
2023/03/02 09:06:41;;;;;;;15.57;10.30;;;1.80;99.90;;;;;;5099888;27;20492;-69
2023/03/02 09:09:11;;;;;;;15.40;10.00;;;1.80;99.90;;;;;;5098015;28;20969;-69
2023/03/02 09:11:41;;;;;;;13.13;9.87;;;1.90;99.90;;;;;;5082170;27;21314;-70
2023/03/02 09:14:09;;;;;;;14.10;9.60;;;1.90;99.90;;;;;;5086938;28;20487;-68
2023/03/02 09:16:37;;;;;;;14.57;9.97;;;1.90;99.90;;;;;;5085752;28;20638;-69
2023/03/02 09:19:07;;;;;;;15.53;9.73;;;2.00;99.90;;;;;;5081932;28;21014;-69
2023/03/02 09:21:35;;;;;;;14.60;9.40;;;2.00;99.90;;;;;;5083702;27;20495;-69
2023/03/02 09:24:03;;;;;;;13.90;9.80;;;2.00;99.90;;;;;;5081284;28;20467;-69
2023/03/02 09:26:31;;;;;;;14.50;10.03;;;2.00;99.90;;;;;;5080924;28;20463;-69
2023/03/02 09:28:59;;;;;;;14.83;10.63;;;2.00;99.90;;;;;;5083020;28;20502;-69
2023/03/02 09:31:27;;;;;;;13.97;9.70;;;2.00;99.90;;;;;;5085130;28;20496;-69
2023/03/02 09:33:57;;;;;;;13.40;10.63;;;2.10;99.90;;;;;;5084498;28;20960;-69
2023/03/02 09:36:27;;;;;;;19.80;10.77;;;2.00;99.90;;;;;;5087071;28;20472;-69
2023/03/02 09:38:55;;;;;;;14.33;10.27;;;2.10;99.90;;;;;;5096101;28;20468;-69
2023/03/02 09:41:53;;;;;;;13.20;9.90;;;2.10;99.90;;;;;;5082439;27;20857;-71
2023/03/02 09:44:56;;;;;;;15.47;9.53;;;2.10;99.90;;;;;;5077668;27;20537;-69
2023/03/02 09:47:30;;;;;;;15.13;10.10;;;2.20;99.90;;;;;;5085678;28;20490;-68
2023/03/02 09:50:16;;;;;;;16.40;10.60;;;2.20;99.90;;;;;;5081653;28;20471;-70
2023/03/02 09:52:52;;;;;;;15.03;10.50;;;2.20;99.90;;;;;;5080983;27;20475;-69
2023/03/02 09:55:24;;;;;;;14.30;9.97;;;2.30;99.90;;;;;;5076787;27;20476;-68
2023/03/02 09:57:53;;;;;;;11.67;9.20;;;2.30;99.90;;;;;;5082192;28;20476;-69
2023/03/02 10:00:28;;;;;;;14.00;9.90;;;2.30;99.90;;;;;;5084984;28;20865;-70
2023/03/02 10:02:59;;;;;;;14.27;9.67;;;2.30;99.90;;;;;;5085146;28;20891;-71
2023/03/02 10:05:46;;;;;;;14.50;10.20;;;2.30;99.90;;;;;;5079560;27;20476;-69
2023/03/02 10:08:19;;;;;;;14.27;9.33;;;2.30;99.90;;;;;;5092436;28;20483;-69
2023/03/02 10:10:52;;;;;;;13.70;9.70;;;2.30;99.90;;;;;;5090502;28;20490;-70
2023/03/02 10:13:23;;;;;;;13.87;9.70;;;2.40;99.90;;;;;;5088392;28;20471;-69
2023/03/02 10:16:01;;;;;;;14.27;10.17;;;2.40;99.90;;;;;;5090569;28;20468;-70
2023/03/02 10:18:35;;;;;;;13.57;9.83;;;2.40;99.90;;;;;;5082049;28;20482;-70
2023/03/02 10:21:09;;;;;;;14.67;10.50;;;2.40;99.90;;;;;;5083995;27;20582;-69
2023/03/02 10:23:44;;;;;;;14.17;10.30;;;2.50;99.90;;;;;;5080493;28;20463;-70
2023/03/02 10:26:32;;;;;;;15.80;10.97;;;2.50;99.90;;;;;;5080187;28;20472;-69
2023/03/02 10:29:11;;;;;;;12.60;9.87;;;2.50;99.90;;;;;;5082774;27;20515;-70
2023/03/02 10:31:42;;;;;;;12.70;9.17;;;2.50;99.90;;;;;;5080370;28;20487;-68
2023/03/02 10:34:10;;;;;;;13.40;9.37;;;2.50;99.90;;;;;;5083573;28;20472;-70
2023/03/02 10:36:40;;;;;;;14.70;11.27;;;2.60;99.90;;;;;;5094657;28;20482;-70
2023/03/02 10:39:14;;;;;;;14.83;11.23;;;2.60;99.90;;;;;;5098008;28;20456;-69
2023/03/02 10:41:48;;;;;;;14.50;10.53;;;2.70;99.90;;;;;;5082751;28;21840;-70
2023/03/02 10:44:22;;;;;;;15.20;10.30;;;2.70;99.90;;;;;;5082940;28;20468;-70
2023/03/02 10:46:52;;;;;;;15.43;10.60;;;2.70;99.90;;;;;;5087968;28;20492;-69
2023/03/02 10:49:26;;;;;;;15.67;10.83;;;2.70;99.90;;;;;;5086998;27;20491;-68
2023/03/02 10:52:02;;;;;;;16.17;10.90;;;2.70;99.90;;;;;;5077513;27;20491;-69
2023/03/02 10:54:33;;;;;;;14.93;10.37;;;2.70;99.90;;;;;;5084626;28;20459;-69
2023/03/02 10:57:03;;;;;;;16.50;10.67;;;2.70;99.90;;;;;;5082358;28;20492;-69
2023/03/02 10:59:43;;;;;;;17.50;10.87;;;2.70;99.90;;;;;;5077991;27;20542;-69
2023/03/02 11:02:18;;;;;;;15.13;10.90;;;2.80;99.90;;;;;;5078535;28;20576;-68
2023/03/02 11:04:46;;;;;;;13.50;10.03;;;2.80;99.90;;;;;;5095597;28;20486;-69
2023/03/02 11:07:17;;;;;;;13.67;9.13;;;2.80;99.90;;;;;;5083266;28;20850;-69
2023/03/02 11:09:58;;;;;;;11.00;8.27;;;2.80;99.90;;;;;;5086002;28;20483;-70
2023/03/02 11:12:26;;;;;;;12.60;8.83;;;2.90;99.90;;;;;;5094235;28;20467;-69
2023/03/02 11:15:22;;;;;;;14.00;9.53;;;2.90;99.90;;;;;;5093844;28;20471;-69
2023/03/02 11:17:59;;;;;;;11.63;8.47;;;2.90;99.90;;;;;;5074276;28;20479;-71
2023/03/02 11:20:32;;;;;;;11.30;8.93;;;2.90;99.90;;;;;;5095873;28;20491;-69
2023/03/02 11:23:13;;;;;;;13.00;8.93;;;2.90;99.90;;;;;;5082549;28;20476;-69
2023/03/02 11:25:48;;;;;;;11.80;9.50;;;2.90;99.90;;;;;;5086845;28;20471;-69
2023/03/02 11:28:34;;;;;;;14.10;9.70;;;3.00;99.90;;;;;;5084668;27;21086;-68
2023/03/02 11:31:07;;;;;;;12.00;8.80;;;3.00;99.90;;;;;;5077632;28;20503;-69
2023/03/02 11:33:42;;;;;;;11.73;8.30;;;3.00;99.90;;;;;;5097786;28;20469;-70
2023/03/02 11:36:18;;;;;;;10.93;7.67;;;3.00;99.90;;;;;;5081109;28;20474;-69
2023/03/02 11:38:49;;;;;;;11.37;8.60;;;3.00;99.90;;;;;;5078701;28;20472;-69
2023/03/02 11:41:30;;;;;;;12.47;8.80;;;3.10;99.90;;;;;;5097519;28;20837;-68
2023/03/02 11:44:01;;;;;;;12.90;8.40;;;3.10;99.90;;;;;;5081658;28;21041;-69
2023/03/02 11:46:32;;;;;;;12.07;8.60;;;3.10;99.90;;;;;;5077218;27;20476;-71
2023/03/02 11:49:05;;;;;;;12.80;8.87;;;3.10;99.90;;;;;;5082659;28;20496;-69
2023/03/02 11:51:36;;;;;;;11.30;8.83;;;3.10;99.90;;;;;;5086771;28;20487;-69
2023/03/02 11:54:27;;;;;;;10.87;8.07;;;3.20;99.90;;;;;;5079278;28;20472;-69
2023/03/02 11:56:58;;;;;;;10.27;7.90;;;3.20;99.90;;;;;;5082403;28;20498;-69
2023/03/02 11:59:27;;;;;;;11.60;8.20;;;3.30;99.90;;;;;;5082183;28;20471;-68
2023/03/02 12:01:58;;;;;;;11.00;8.30;;;3.30;99.90;;;;;;5092896;28;20870;-68
2023/03/02 12:04:32;;;;;;;11.17;8.60;;;3.30;99.90;;;;;;5080715;28;20476;-69
2023/03/02 12:07:03;;;;;;;11.07;8.10;;;3.30;99.90;;;;;;5085519;28;20543;-70
2023/03/02 12:09:36;;;;;;;11.60;8.13;;;3.30;99.90;;;;;;5093269;28;20484;-68
2023/03/02 12:12:39;;;;;;;13.00;7.90;;;3.30;99.90;;;;;;5079698;28;21034;-69
2023/03/02 12:15:36;;;;;;;10.60;8.17;;;3.30;99.90;;;;;;5100233;28;20491;-69
2023/03/02 12:18:16;;;;;;;11.00;7.47;;;3.40;99.90;;;;;;5089449;28;21208;-69
2023/03/02 12:20:44;;;;;;;10.03;7.43;;;3.40;99.90;;;;;;5088218;28;20488;-69
2023/03/02 12:23:22;;;;;;;9.13;7.47;;;3.50;99.90;;;;;;5083589;28;20900;-69
2023/03/02 12:26:02;;;;;;;12.50;8.50;;;3.50;99.90;;;;;;5080931;27;20475;-69
2023/03/02 12:28:35;;;;;;;10.77;8.10;;;3.60;99.90;;;;;;5086099;28;20521;-69
2023/03/02 12:31:09;;;;;;;9.60;7.43;;;3.60;99.90;;;;;;5082299;27;21105;-69
2023/03/02 12:33:47;;;;;;;10.20;7.40;;;3.70;99.90;;;;;;5084761;28;20543;-69
2023/03/02 12:36:19;;;;;;;10.13;7.43;;;3.70;99.90;;;;;;5085543;27;20471;-68
2023/03/02 12:39:00;;;;;;;9.60;7.47;;;3.70;99.90;;;;;;5101701;28;20491;-69
2023/03/02 12:41:46;;;;;;;8.57;6.93;;;3.70;99.90;;;;;;5087218;28;20490;-68
2023/03/02 12:44:30;;;;;;;9.57;7.60;;;3.70;99.90;;;;;;5081835;28;20488;-71
2023/03/02 12:46:59;;;;;;;10.33;7.07;;;3.80;99.90;;;;;;5098922;28;20575;-70
2023/03/02 12:49:49;;;;;;;13.10;7.90;;;3.80;99.90;;;;;;5100746;28;20495;-71
2023/03/02 12:52:29;;;;;;;9.13;7.67;;;3.80;99.90;;;;;;5085512;28;20472;-71
2023/03/02 12:55:02;;;;;;;8.80;7.63;;;3.80;99.90;;;;;;5082578;27;20468;-71
2023/03/02 12:57:30;;;;;;;8.70;7.30;;;3.80;99.90;;;;;;5085854;28;20499;-70
2023/03/02 13:00:01;;;;;;;9.37;7.70;;;3.80;99.90;;;;;;5075998;27;20866;-71
2023/03/02 13:02:31;;;;;;;9.83;7.53;;;3.80;99.90;;;;;;5077744;27;21150;-70
2023/03/02 13:05:01;;;;;;;9.10;8.00;;;3.90;99.90;;;;;;5077491;28;20467;-71
2023/03/02 13:07:36;;;;;;;10.77;8.47;;;3.90;99.90;;;;;;5084365;27;20476;-70
2023/03/02 13:10:09;;;;;;;12.83;8.93;;;3.90;99.90;;;;;;5093702;28;20494;-70
2023/03/02 13:12:44;;;;;;;11.37;8.30;;;3.90;99.90;;;;;;5081977;28;20467;-71
2023/03/02 13:15:16;;;;;;;11.83;8.30;;;3.90;99.90;;;;;;5087526;28;20467;-70
2023/03/02 13:17:45;;;;;;;10.30;7.80;;;4.00;99.90;;;;;;5096088;27;20524;-70
2023/03/02 13:20:14;;;;;;;9.57;7.50;;;4.00;99.90;;;;;;5094795;28;20494;-70
2023/03/02 13:22:42;;;;;;;8.57;7.47;;;4.10;99.90;;;;;;5083429;27;21184;-70
2023/03/02 13:25:23;;;;;;;8.33;7.27;;;4.10;99.90;;;;;;5078114;28;20465;-70
2023/03/02 13:27:55;;;;;;;10.97;7.43;;;4.20;99.90;;;;;;5084348;28;20491;-71
2023/03/02 13:30:27;;;;;;;9.20;7.00;;;4.20;99.90;;;;;;5097719;28;20973;-70
2023/03/02 13:33:01;;;;;;;9.40;6.93;;;4.20;99.90;;;;;;5100112;27;21435;-69
2023/03/02 13:35:31;;;;;;;8.07;6.60;;;4.20;99.90;;;;;;5100439;28;20468;-71
2023/03/02 13:38:03;;;;;;;8.50;6.77;;;4.20;99.90;;;;;;5091932;27;20479;-70
2023/03/02 13:40:40;;;;;;;7.30;6.13;;;4.20;99.90;;;;;;5094541;27;21203;-70
2023/03/02 13:43:27;;;;;;;9.63;7.40;;;4.20;99.90;;;;;;5099691;28;20468;-70
2023/03/02 13:45:58;;;;;;;6.83;6.10;;;4.30;99.90;;;;;;5096630;28;20470;-70
2023/03/02 13:48:26;;;;;;;6.40;5.60;;;4.30;99.90;;;;;;5101273;28;20932;-70
2023/03/02 13:50:58;;;;;;;6.50;5.67;;;4.30;99.90;;;;;;5098888;28;20503;-71
2023/03/02 13:53:28;;;;;;;6.30;5.30;;;4.40;99.90;;;;;;5098897;28;20471;-70
2023/03/02 13:55:59;;;;;;;8.20;6.60;;;4.50;99.90;;;;;;5095027;28;20464;-71
2023/03/02 13:58:28;;;;;;;7.63;6.13;;;4.60;99.90;;;;;;5091131;27;20584;-71
2023/03/02 14:00:57;;;;;;;7.33;5.87;;;4.80;99.90;;;;;;5095651;28;20491;-70
2023/03/02 14:03:28;;;;;;;6.83;6.00;;;5.00;99.90;;;;;;5094761;28;20554;-70
2023/03/02 14:05:58;;;;;;;9.53;7.40;;;5.00;99.90;;;;;;5099165;28;20468;-71
2023/03/02 14:08:26;;;;;;;7.33;6.60;;;5.00;99.90;;;;;;5098766;28;20900;-70
2023/03/02 14:10:57;;;;;;;7.40;5.90;;;4.90;99.90;;;;;;5093072;28;20507;-71
2023/03/02 14:13:28;;;;;;;8.30;7.13;;;4.90;99.90;;;;;;5098065;28;20468;-70
2023/03/02 14:15:58;;;;;;;10.40;6.47;;;4.80;99.90;;;;;;5099144;28;20595;-71
2023/03/02 14:18:34;;;;;;;6.80;6.07;;;4.70;99.90;;;;;;5095891;27;20734;-70
2023/03/02 14:21:03;;;;;;;7.37;6.60;;;4.70;99.90;;;;;;5098372;28;20483;-72
2023/03/02 14:23:31;;;;;;;7.40;6.60;;;4.70;99.90;;;;;;5083540;28;20476;-71
2023/03/02 14:25:59;;;;;;;9.13;5.40;;;4.60;99.90;;;;;;5095416;28;20480;-71
2023/03/02 14:28:34;;;;;;;6.60;5.97;;;4.60;99.90;;;;;;5090727;27;20987;-71
2023/03/02 14:31:03;;;;;;;7.07;6.07;;;4.60;99.90;;;;;;5084007;28;20502;-71
2023/03/02 14:33:31;;;;;;;8.60;6.60;;;4.60;99.90;;;;;;5099825;28;20503;-70
2023/03/02 14:35:59;;;;;;;8.83;6.43;;;4.80;99.90;;;;;;5096159;27;20464;-70
2023/03/02 14:38:27;;;;;;;8.67;6.80;;;4.70;99.90;;;;;;5090923;28;20479;-70
2023/03/02 14:40:55;;;;;;;8.63;7.07;;;4.70;99.90;;;;;;5089196;27;20480;-70
2023/03/02 14:43:24;;;;;;;8.83;6.70;;;4.70;99.90;;;;;;5091609;28;20563;-70
2023/03/02 14:45:55;;;;;;;7.97;7.07;;;4.70;99.90;;;;;;5096406;27;20922;-70
2023/03/02 14:48:24;;;;;;;8.20;6.70;;;4.70;99.90;;;;;;5095778;28;20864;-70
2023/03/02 14:50:52;;;;;;;7.53;6.17;;;4.60;99.90;;;;;;5091309;28;20521;-70
2023/03/02 14:53:29;;;;;;;7.80;6.83;;;4.60;99.90;;;;;;5096281;27;20472;-70
2023/03/02 14:55:57;;;;;;;9.13;7.17;;;4.60;99.90;;;;;;5096997;28;20467;-71
2023/03/02 14:58:30;;;;;;;9.07;6.40;;;4.60;99.90;;;;;;5086845;28;20480;-70
2023/03/02 15:00:58;;;;;;;7.93;7.13;;;4.50;99.90;;;;;;5093534;28;20495;-70
2023/03/02 15:03:28;;;;;;;7.27;6.43;;;4.50;99.90;;;;;;5089316;27;20480;-71
2023/03/02 15:05:56;;;;;;;9.07;7.20;;;4.50;99.90;;;;;;5081824;27;20592;-70
2023/03/02 15:08:29;;;;;;;8.80;7.47;;;4.40;99.90;;;;;;5080856;28;20483;-71
2023/03/02 15:10:57;;;;;;;8.43;7.53;;;4.40;99.90;;;;;;5084899;27;20505;-71